createdAt,value
2018-08-20T00:02:10.216Z,95184.05
2018-08-20T00:04:36.538Z,95185.98
2018-08-20T00:07:02.897Z,95183.28
2018-08-20T00:09:29.277Z,95178.94
2018-08-20T00:11:55.634Z,95175.39
2018-08-20T00:14:22.032Z,95181.28
2018-08-20T00:16:48.375Z,95183.69
2018-08-20T00:19:14.762Z,95181.95
2018-08-20T00:21:41.088Z,95181.91
2018-08-20T00:24:07.428Z,95179.73
2018-08-20T00:26:33.790Z,95180.37
2018-08-20T00:29:00.153Z,95180.83
2018-08-20T00:31:26.588Z,95174.61
2018-08-20T00:33:52.935Z,95171.52
2018-08-20T00:36:19.317Z,95169.35
2018-08-20T00:38:45.646Z,95164.70
2018-08-20T00:41:12.039Z,95161.22
2018-08-20T00:43:38.362Z,95165.48
2018-08-20T00:46:04.733Z,95167.13
2018-08-20T00:48:31.081Z,95168.09
2018-08-20T00:50:57.454Z,95166.38
2018-08-20T00:53:23.781Z,95172.20
2018-08-20T00:55:50.234Z,95165.72
2018-08-20T00:58:16.607Z,95163.14
2018-08-20T01:00:42.992Z,95165.17
2018-08-20T01:03:09.322Z,95158.02
2018-08-20T01:05:35.719Z,95159.83
2018-08-20T01:08:02.072Z,95161.33
2018-08-20T01:10:28.398Z,95164.81
2018-08-20T01:12:54.814Z,95172.12
2018-08-20T01:15:21.216Z,95168.91
2018-08-20T01:17:47.629Z,95158.72
2018-08-20T01:20:13.967Z,95157.59
2018-08-20T01:22:40.371Z,95165.61
2018-08-20T01:25:06.770Z,95161.86
2018-08-20T01:27:40.625Z,95158.42
2018-08-20T04:23:46.951Z,95178.92
2018-08-20T04:26:13.321Z,95178.22
2018-08-20T04:28:39.671Z,95176.36
2018-08-20T04:31:06.075Z,95173.99
2018-08-20T04:33:32.401Z,95177.18
2018-08-20T04:35:58.732Z,95182.15
2018-08-20T04:38:25.065Z,95181.06
2018-08-20T04:40:51.450Z,95181.49
2018-08-20T04:43:17.768Z,95175.23
2018-08-20T04:45:44.088Z,95176.41
2018-08-20T04:48:10.459Z,95179.45
2018-08-20T04:50:36.852Z,95179.05
2018-08-20T04:53:03.169Z,95182.11
2018-08-20T04:55:29.559Z,95185.88
2018-08-20T04:57:55.914Z,95178.58
2018-08-20T05:00:22.288Z,95176.23
2018-08-20T05:02:48.610Z,95176.41
2018-08-20T05:05:14.971Z,95175.94
2018-08-20T05:07:41.365Z,95183.03
2018-08-20T05:10:07.777Z,95179.25
2018-08-20T05:12:34.224Z,95181.70
2018-08-20T05:15:00.585Z,95180.66
2018-08-20T05:17:26.918Z,95177.75
2018-08-20T05:19:53.267Z,95182.77
2018-08-20T05:22:19.638Z,95178.91
2018-08-20T05:24:45.985Z,95179.73
2018-08-20T05:27:12.375Z,95183.32
2018-08-20T05:29:38.765Z,95188.19
2018-08-20T05:32:05.261Z,95196.68
2018-08-20T05:34:31.603Z,95192.45
2018-08-20T05:36:58.022Z,95195.27
2018-08-20T05:39:24.384Z,95193.88
2018-08-20T05:41:50.788Z,95197.38
2018-08-20T05:44:17.180Z,95186.61
2018-08-20T05:46:43.554Z,95188.14
2018-08-20T05:49:09.894Z,95189.48
2018-08-20T05:51:36.313Z,95192.14
2018-08-20T05:54:02.663Z,95192.86
2018-08-20T05:56:29.083Z,95192.09
2018-08-20T05:58:55.406Z,95197.20
2018-08-20T06:01:21.937Z,95191.07
2018-08-20T06:03:48.381Z,95199.34
2018-08-20T06:06:14.774Z,95196.04
2018-08-20T06:08:41.252Z,95204.75
2018-08-20T06:11:07.646Z,95205.27
2018-08-20T06:13:34.042Z,95204.36
2018-08-20T06:16:00.387Z,95206.28
2018-08-20T06:18:26.849Z,95209.83
2018-08-20T06:20:53.217Z,95207.95
2018-08-20T06:23:19.648Z,95207.77
2018-08-20T06:25:46.012Z,95210.80
2018-08-20T06:28:12.366Z,95213.56
2018-08-20T06:30:38.842Z,95211.88
2018-08-20T06:33:05.200Z,95213.39
2018-08-20T06:35:31.700Z,95214.58
2018-08-20T06:37:58.095Z,95211.59
2018-08-20T06:40:24.571Z,95209.52
2018-08-20T06:42:50.931Z,95210.78
2018-08-20T06:45:17.361Z,95208.04
2018-08-20T06:47:43.873Z,95207.14
2018-08-20T06:50:10.333Z,95209.26
2018-08-20T06:52:36.674Z,95211.31
2018-08-20T06:55:03.147Z,95214.44
2018-08-20T06:57:29.502Z,95206.56
2018-08-20T06:59:55.920Z,95203.95
2018-08-20T07:02:22.268Z,95205.58
2018-08-20T07:04:48.665Z,95206.59
2018-08-20T07:07:15.148Z,95203.66
2018-08-20T07:09:41.563Z,95206.53
2018-08-20T07:12:07.998Z,95205.06
2018-08-20T07:14:34.416Z,95203.41
2018-08-20T07:17:00.861Z,95200.36
2018-08-20T07:19:27.233Z,95205.80
2018-08-20T07:21:53.634Z,95204.74
2018-08-20T07:24:20.148Z,95198.24
2018-08-20T07:26:46.503Z,95200.02
2018-08-20T07:29:12.879Z,95198.41
2018-08-20T07:31:39.284Z,95200.00
2018-08-20T07:34:05.631Z,95203.45
2018-08-20T07:36:32.119Z,95197.41
2018-08-20T07:38:58.548Z,95191.77
2018-08-20T07:41:24.951Z,95198.64
2018-08-20T07:43:51.353Z,95204.07
2018-08-20T07:46:17.747Z,95201.08
2018-08-20T07:48:44.096Z,95191.72
2018-08-20T07:51:10.625Z,95197.84
2018-08-20T07:53:36.964Z,95198.91
2018-08-20T07:56:03.323Z,95195.83
2018-08-20T07:58:29.661Z,95200.39
2018-08-20T08:00:56.055Z,95203.85
2018-08-20T08:03:22.441Z,95195.09
2018-08-20T08:05:48.863Z,95191.25
2018-08-20T08:08:15.198Z,95191.69
2018-08-20T08:10:41.577Z,95195.66
2018-08-20T08:13:07.993Z,95198.42
2018-08-20T08:15:34.434Z,95189.83
2018-08-20T08:18:00.806Z,95188.54
2018-08-20T08:20:27.314Z,95189.81
2018-08-20T08:22:53.663Z,95189.62
2018-08-20T08:25:20.006Z,95192.23
2018-08-20T08:27:46.405Z,95187.04
2018-08-20T08:30:12.795Z,95189.55
2018-08-20T08:32:39.243Z,95189.02
2018-08-20T08:35:05.626Z,95192.36
2018-08-20T08:37:32.046Z,95182.06
2018-08-20T08:39:58.383Z,95188.12
2018-08-20T08:42:24.752Z,95182.23
2018-08-20T08:44:51.130Z,95181.94
2018-08-20T08:47:17.519Z,95175.67
2018-08-20T08:49:44.019Z,95178.99
2018-08-20T08:52:10.411Z,95167.43
2018-08-20T08:54:36.746Z,95170.64
2018-08-20T08:57:03.193Z,95165.38
2018-08-20T08:59:29.526Z,95170.09
2018-08-20T09:01:55.886Z,95169.08
2018-08-20T09:04:22.239Z,95170.31
2018-08-20T09:06:48.605Z,95165.26
2018-08-20T09:09:14.922Z,95156.91
2018-08-20T09:11:41.284Z,95150.91
2018-08-20T09:14:07.697Z,95149.42
2018-08-20T09:16:34.102Z,95148.04
2018-08-20T09:19:00.460Z,95148.49
2018-08-20T09:21:27.014Z,95140.12
2018-08-20T09:23:53.375Z,95138.11
2018-08-20T09:26:19.731Z,95135.47
2018-08-20T09:28:46.210Z,95127.34
2018-08-20T09:31:12.541Z,95122.47
2018-08-20T09:33:38.977Z,95126.07
2018-08-20T09:36:05.341Z,95124.98
2018-08-20T09:38:31.693Z,95124.13
2018-08-20T09:40:58.086Z,95127.52
2018-08-20T09:43:24.498Z,95115.53
2018-08-20T09:45:50.889Z,95116.91
2018-08-20T09:48:17.367Z,95107.32
2018-08-20T09:50:44.829Z,95103.23
2018-08-20T09:53:11.217Z,95112.29
2018-08-20T09:55:37.561Z,95110.18
2018-08-20T09:58:03.945Z,95109.92
2018-08-20T10:00:30.448Z,95104.91
2018-08-20T10:02:56.844Z,95111.09
2018-08-20T10:05:23.219Z,95113.27
2018-08-20T10:07:49.606Z,95112.28
2018-08-20T10:10:15.984Z,95112.97
2018-08-20T10:12:42.410Z,95113.98
2018-08-20T10:15:08.778Z,95114.72
2018-08-20T10:17:35.111Z,95112.64
2018-08-20T10:20:01.507Z,95115.80
2018-08-20T10:22:27.895Z,95118.70
2018-08-20T10:24:54.371Z,95119.10
2018-08-20T10:27:20.735Z,95127.48
2018-08-20T10:29:47.235Z,95124.02
2018-08-20T10:32:13.634Z,95122.00
2018-08-20T10:34:40.061Z,95117.62
2018-08-20T10:37:06.402Z,95116.84
2018-08-20T10:39:32.763Z,95117.25
2018-08-20T10:41:59.130Z,95115.91
2018-08-20T10:44:25.498Z,95115.70
2018-08-20T10:46:51.922Z,95111.72
2018-08-20T10:49:18.271Z,95114.97
2018-08-20T10:51:44.642Z,95117.65
2018-08-20T10:54:11.053Z,95118.95
2018-08-20T10:56:37.487Z,95119.30
2018-08-20T10:59:03.926Z,95116.98
2018-08-20T11:01:30.345Z,95108.61
2018-08-20T11:03:56.726Z,95107.87
2018-08-20T11:06:23.128Z,95105.70
2018-08-20T11:08:49.496Z,95111.48
2018-08-20T11:11:15.863Z,95112.89
2018-08-20T11:13:42.223Z,95114.95
2018-08-20T11:16:08.616Z,95117.07
2018-08-20T11:18:35.232Z,95119.11
2018-08-20T11:21:01.479Z,95119.16
2018-08-20T11:23:27.949Z,95133.16
2018-08-20T11:25:54.347Z,95162.33
2018-08-20T11:28:20.762Z,95186.36
2018-08-20T11:30:47.383Z,95176.59
2018-08-20T11:33:13.784Z,95181.14
2018-08-20T11:35:40.203Z,95169.61
2018-08-20T11:38:06.618Z,95170.17
2018-08-20T11:40:33.100Z,95178.75
2018-08-20T11:42:59.618Z,95184.84
2018-08-20T11:45:26.046Z,95191.74
2018-08-20T11:47:52.429Z,95196.69
2018-08-20T11:50:19.531Z,95192.52
2018-08-20T11:52:45.929Z,95188.68
2018-08-20T11:55:12.397Z,95177.65
2018-08-20T11:57:38.828Z,95179.43
2018-08-20T12:00:05.260Z,95182.22
2018-08-20T12:02:31.645Z,95188.06
2018-08-20T12:04:58.129Z,95185.12
2018-08-20T12:07:24.537Z,95185.08
2018-08-20T12:09:50.915Z,95176.42
2018-08-20T12:12:17.411Z,95175.30
2018-08-20T12:14:43.862Z,95166.14
2018-08-20T12:17:10.242Z,95159.57
2018-08-20T12:19:36.582Z,95159.31
2018-08-20T12:22:02.920Z,95151.05
2018-08-20T12:24:29.300Z,95150.02
2018-08-20T12:26:55.691Z,95146.34
2018-08-20T12:29:22.072Z,95149.09
2018-08-20T12:31:48.457Z,95144.59
2018-08-20T12:34:15.023Z,95139.42
2018-08-20T12:41:59.413Z,95128.05
2018-08-20T12:44:25.838Z,95124.42
2018-08-20T12:46:52.248Z,95125.77
2018-08-20T12:49:18.607Z,95121.94
2018-08-20T12:51:44.977Z,95116.05
2018-08-20T12:54:11.382Z,95110.57
2018-08-20T12:56:37.740Z,95100.96
2018-08-20T12:59:04.133Z,95105.50
2018-08-20T13:01:30.585Z,95096.22
2018-08-20T13:03:56.996Z,95093.63
2018-08-20T13:06:23.410Z,95087.13
2018-08-20T13:08:49.783Z,95089.66
2018-08-20T13:11:16.186Z,95089.23
2018-08-20T13:13:42.597Z,95085.26
2018-08-20T13:16:09.104Z,95086.23
2018-08-20T13:18:35.330Z,95086.70
2018-08-20T13:21:01.790Z,95087.63
2018-08-20T13:23:28.178Z,95090.53
2018-08-20T13:25:54.526Z,95093.83
2018-08-20T13:28:20.992Z,95092.64
2018-08-20T13:30:47.969Z,95091.41
2018-08-20T13:33:14.647Z,95084.42
2018-08-20T13:35:41.006Z,95083.39
2018-08-20T13:38:07.371Z,95085.00
2018-08-20T13:40:33.701Z,95090.47
2018-08-20T13:43:00.131Z,95090.58
2018-08-20T13:45:26.475Z,95087.16
2018-08-20T13:47:52.907Z,95087.57
2018-08-20T13:50:19.397Z,95087.80
2018-08-20T13:52:45.762Z,95086.91
2018-08-20T13:55:12.124Z,95079.66
2018-08-20T13:57:38.555Z,95083.53
2018-08-20T14:00:04.888Z,95078.58
2018-08-20T14:02:31.297Z,95079.89
2018-08-20T14:04:57.685Z,95077.30
2018-08-20T14:07:24.019Z,95075.55
2018-08-20T14:09:50.486Z,95071.34
2018-08-20T14:12:16.920Z,95065.15
2018-08-20T14:14:43.555Z,95066.55
2018-08-20T14:17:09.918Z,95065.61
2018-08-20T14:19:36.421Z,95061.33
2018-08-20T14:22:02.851Z,95065.62
2018-08-20T14:24:29.333Z,95061.22
2018-08-20T14:26:55.754Z,95050.99
2018-08-20T14:29:22.195Z,95059.97
2018-08-20T14:31:48.696Z,95049.02
2018-08-20T14:34:15.035Z,95057.66
2018-08-20T14:36:41.471Z,95056.01
2018-08-20T14:39:07.751Z,95052.45
2018-08-20T14:41:34.079Z,95058.70
2018-08-20T14:44:00.541Z,95053.95
2018-08-20T14:46:26.882Z,95059.42
2018-08-20T14:48:53.214Z,95060.86
2018-08-20T14:51:19.537Z,95061.02
2018-08-20T14:53:45.890Z,95062.67
2018-08-20T14:56:12.229Z,95063.46
2018-08-20T14:58:38.562Z,95058.59
2018-08-20T15:01:04.962Z,95058.28
2018-08-20T15:03:31.349Z,95059.37
2018-08-20T15:05:57.726Z,95054.72
2018-08-20T15:08:24.098Z,95058.60
2018-08-20T15:10:50.484Z,95048.53
2018-08-20T15:13:16.823Z,95057.20
2018-08-20T15:15:43.252Z,95050.12
2018-08-20T15:18:09.533Z,95041.19
2018-08-20T15:20:35.938Z,95051.31
2018-08-20T15:23:02.294Z,95045.44
2018-08-20T15:25:28.699Z,95045.58
2018-08-20T15:27:55.064Z,95044.55
2018-08-20T15:30:21.422Z,95036.86
2018-08-20T15:32:47.810Z,95045.44
2018-08-20T15:35:14.216Z,95044.08
2018-08-20T15:37:40.571Z,95038.04
2018-08-20T15:40:06.974Z,95040.86
2018-08-20T15:42:33.327Z,95037.45
2018-08-20T15:44:59.715Z,95044.67
2018-08-20T15:47:26.068Z,95038.33
2018-08-20T15:49:52.505Z,95040.08
2018-08-20T15:52:18.905Z,95037.66
2018-08-20T15:54:45.295Z,95037.23
2018-08-20T15:57:11.674Z,95034.97
2018-08-20T15:59:38.036Z,95036.88
2018-08-20T16:02:04.402Z,95038.84
2018-08-20T16:04:30.801Z,95034.09
2018-08-20T16:06:57.294Z,95039.20
2018-08-20T16:09:23.790Z,95037.92
2018-08-20T16:11:50.407Z,95037.75
2018-08-20T16:14:16.755Z,95046.06
2018-08-20T16:16:43.168Z,95044.67
2018-08-20T16:19:09.574Z,95043.47
2018-08-20T16:21:35.964Z,95047.55
2018-08-20T16:24:02.296Z,95045.91
2018-08-20T16:26:28.668Z,95053.40
2018-08-20T16:28:55.071Z,95053.40
2018-08-20T16:31:21.482Z,95055.34
2018-08-20T16:33:47.993Z,95059.52
2018-08-20T16:36:14.490Z,95058.44
2018-08-20T16:38:40.820Z,95056.53
2018-08-20T16:41:07.212Z,95055.96
2018-08-20T16:43:33.618Z,95052.05
2018-08-20T16:45:59.991Z,95049.11
2018-08-20T16:48:26.348Z,95058.15
2018-08-20T16:50:52.717Z,95060.15
2018-08-20T16:53:19.056Z,95061.53
2018-08-20T16:55:45.611Z,95064.33
2018-08-20T16:58:12.114Z,95064.70
2018-08-20T17:00:38.548Z,95066.25
2018-08-20T17:03:04.909Z,95062.98
2018-08-20T17:05:31.278Z,95066.14
2018-08-20T17:07:57.643Z,95058.95
2018-08-20T17:10:24.071Z,95068.67
2018-08-20T17:12:50.404Z,95065.93
2018-08-20T17:15:16.804Z,95059.53
2018-08-20T17:17:43.265Z,95059.37
2018-08-20T17:20:09.783Z,95060.91
2018-08-20T17:22:36.108Z,95066.23
2018-08-20T17:25:02.691Z,95060.00
2018-08-20T17:27:29.031Z,95068.83
2018-08-20T17:29:55.402Z,95056.64
2018-08-20T17:32:21.735Z,95056.53
2018-08-20T17:34:48.066Z,95063.61
2018-08-20T17:37:14.463Z,95068.16
2018-08-20T17:39:40.910Z,95068.72
2018-08-20T17:42:07.304Z,95067.02
2018-08-20T17:44:33.646Z,95062.36
2018-08-20T17:47:00.052Z,95063.20
2018-08-20T17:49:26.398Z,95070.42
2018-08-20T17:51:52.788Z,95068.31
2018-08-20T17:54:19.118Z,95076.78
2018-08-20T17:56:45.508Z,95075.54
2018-08-20T17:59:11.856Z,95075.89
2018-08-20T18:01:38.214Z,95079.52
2018-08-20T18:04:04.546Z,95077.95
2018-08-20T18:06:30.920Z,95080.45
2018-08-20T18:08:57.258Z,95083.91
2018-08-20T18:11:23.661Z,95088.80
2018-08-20T18:13:50.114Z,95090.34
2018-08-20T18:16:16.434Z,95096.14
2018-08-20T18:18:42.793Z,95094.58
2018-08-20T18:21:09.136Z,95104.13
2018-08-20T18:23:35.531Z,95112.29
2018-08-20T18:26:01.882Z,95109.30
2018-08-20T18:28:28.208Z,95113.27
2018-08-20T18:30:54.580Z,95112.12
2018-08-20T18:33:20.904Z,95116.50
2018-08-20T18:35:47.306Z,95114.48
2018-08-20T18:38:13.779Z,95117.53
2018-08-20T18:40:40.157Z,95118.00
2018-08-20T18:43:07.704Z,95114.08
2018-08-20T18:45:34.063Z,95116.25
2018-08-20T18:48:00.409Z,95120.84
2018-08-20T18:50:26.818Z,95125.58
2018-08-20T18:52:53.354Z,95118.80
2018-08-20T18:55:19.731Z,95123.47
2018-08-20T18:57:46.071Z,95123.11
2018-08-20T19:00:12.575Z,95117.84
2018-08-20T19:02:38.907Z,95129.07
2018-08-20T19:05:05.289Z,95123.55
2018-08-20T19:07:31.644Z,95126.24
2018-08-20T19:09:58.059Z,95123.52
2018-08-20T19:12:24.407Z,95128.41
2018-08-20T19:14:50.771Z,95122.92
2018-08-20T19:17:17.172Z,95126.33
2018-08-20T19:19:43.509Z,95132.47
2018-08-20T19:22:09.863Z,95128.55
2018-08-20T19:24:36.251Z,95129.13
2018-08-20T19:27:02.686Z,95128.41
2018-08-20T19:29:29.122Z,95131.70
2018-08-20T19:31:55.455Z,95133.69
2018-08-20T19:34:21.840Z,95130.36
2018-08-20T19:36:48.187Z,95131.59
2018-08-20T19:39:14.533Z,95135.69
2018-08-20T19:41:40.851Z,95129.34
2018-08-20T19:44:07.171Z,95121.63
2018-08-20T19:46:33.504Z,95130.44
2018-08-20T19:48:59.998Z,95128.16
2018-08-20T19:51:26.326Z,95126.73
2018-08-20T19:53:52.795Z,95126.22
2018-08-20T19:56:19.188Z,95124.52
2018-08-20T19:58:45.715Z,95120.59
2018-08-20T20:01:12.072Z,95119.59
2018-08-20T20:03:38.436Z,95122.06
2018-08-20T20:06:04.792Z,95122.84
2018-08-20T20:08:31.136Z,95120.53
2018-08-20T20:10:57.507Z,95123.25
2018-08-20T20:13:23.899Z,95120.72
2018-08-20T20:15:50.238Z,95116.13
2018-08-20T20:18:16.565Z,95117.64
2018-08-20T20:20:42.962Z,95124.64
2018-08-20T20:23:09.328Z,95122.01
2018-08-20T20:25:35.802Z,95128.16
2018-08-20T20:28:02.216Z,95127.45
2018-08-20T20:30:28.692Z,95125.98
2018-08-20T20:32:55.049Z,95125.16
2018-08-20T20:35:21.571Z,95121.92
2018-08-20T20:37:47.891Z,95122.88
2018-08-20T20:40:14.242Z,95126.33
2018-08-20T20:42:40.609Z,95125.70
2018-08-20T20:45:06.922Z,95126.20
2018-08-20T20:47:33.270Z,95130.63
2018-08-20T20:49:59.743Z,95130.05
2018-08-20T20:52:26.210Z,95128.78
2018-08-20T20:54:52.510Z,95130.05
2018-08-20T20:57:18.852Z,95127.27
2018-08-20T20:59:45.168Z,95125.21
2018-08-20T21:02:11.544Z,95130.20
2018-08-20T21:04:37.876Z,95131.49
2018-08-20T21:07:04.229Z,95134.62
2018-08-20T21:09:30.699Z,95129.66
2018-08-20T21:11:57.019Z,95139.36
2018-08-20T21:14:23.409Z,95133.52
2018-08-20T21:16:49.783Z,95135.84
2018-08-20T21:19:16.214Z,95135.19
2018-08-20T21:21:42.599Z,95134.39
2018-08-20T21:24:08.954Z,95140.13
2018-08-20T21:26:35.335Z,95136.21
2018-08-20T21:29:01.691Z,95136.21
2018-08-20T21:31:28.122Z,95137.69
2018-08-20T21:33:54.544Z,95137.98
2018-08-20T21:36:20.907Z,95137.84
2018-08-20T21:38:47.261Z,95143.24
2018-08-20T21:41:13.652Z,95142.94
2018-08-20T21:43:40.009Z,95143.56
2018-08-20T21:46:06.355Z,95138.33
2018-08-20T21:48:32.699Z,95140.22
2018-08-20T21:50:59.065Z,95143.44
2018-08-20T21:53:25.509Z,95143.33
2018-08-20T21:55:51.834Z,95138.23
2018-08-20T21:58:18.175Z,95146.53
2018-08-20T22:00:44.695Z,95148.48
2018-08-20T22:03:11.090Z,95143.87
2018-08-20T22:05:37.415Z,95143.05
2018-08-20T22:08:03.775Z,95141.62
2018-08-20T22:10:30.155Z,95136.29
2018-08-20T22:12:56.490Z,95134.03
2018-08-20T22:15:22.824Z,95141.03
2018-08-20T22:17:49.150Z,95131.91
2018-08-20T22:20:15.479Z,95131.68
2018-08-20T22:22:41.830Z,95130.09
2018-08-20T22:25:08.237Z,95131.39
2018-08-20T22:27:34.587Z,95132.83
2018-08-20T22:30:00.928Z,95131.84
2018-08-20T22:32:27.277Z,95133.67
2018-08-20T22:34:53.683Z,95133.27
2018-08-20T22:37:20.046Z,95128.76
2018-08-20T22:39:46.417Z,95129.22
2018-08-20T22:42:12.828Z,95132.97
2018-08-20T22:44:39.177Z,95131.20
2018-08-20T22:47:05.805Z,95130.23
2018-08-20T22:49:32.199Z,95132.91
2018-08-20T22:51:58.561Z,95133.45
2018-08-20T22:54:24.909Z,95130.05
2018-08-20T22:56:51.249Z,95129.03
2018-08-20T22:59:17.569Z,95130.34
2018-08-20T23:01:43.903Z,95130.29
2018-08-20T23:04:10.234Z,95130.16
2018-08-20T23:06:36.597Z,95134.03
2018-08-20T23:09:02.932Z,95128.22
2018-08-20T23:11:29.291Z,95128.95
2018-08-20T23:13:55.660Z,95126.71
2018-08-20T23:16:22.064Z,95137.78
2018-08-20T23:18:48.389Z,95136.20
2018-08-20T23:21:14.718Z,95135.27
2018-08-20T23:23:41.280Z,95139.07
2018-08-20T23:26:07.631Z,95140.59
2018-08-20T23:28:33.982Z,95136.73
2018-08-20T23:31:00.361Z,95141.59
2018-08-20T23:33:26.743Z,95138.58
2018-08-20T23:35:53.128Z,95142.88
2018-08-20T23:38:19.537Z,95145.45
2018-08-20T23:40:45.909Z,95141.88
2018-08-20T23:43:12.262Z,95141.49
2018-08-20T23:45:38.765Z,95141.82
2018-08-20T23:48:05.125Z,95145.52
2018-08-20T23:50:31.514Z,95141.55
2018-08-20T23:52:57.843Z,95141.78
2018-08-20T23:55:24.287Z,95146.23
2018-08-20T23:57:50.629Z,95139.59
